< < Back
Terminal Aerodrome Forecast


Current Version              Previous Versions:   1  2  3  4  5  6  7  8  9  

Terminal Aerodrome Forecast

143
FTUS42 KFFC 182156 AAB
TAFPDK
TAF AMD
KPDK 182156Z 1822/1918 30005KT P6SM BKN050
     FM190100 31003KT P6SM SCT045 BKN150
     FM190900 00000KT P6SM SCT150
     FM191600 01004KT P6SM BKN150=

Latest METAR

129
SAUS70 KWBC 191300
MTRPDK
METAR KPDK 191253Z 23003KT 9SM CLR 03/M01 A3015 RMK AO2 SLP220
T00281006


USA.gov is the U.S. government's official web portal to all federal, state and local government web resources and services.